sensor_id;sensor_type;location;lat;lon;timestamp;P1;durP1;ratioP1;P2;durP2;ratioP2
78122;SDS011;67376;44.802;10.332;2023-04-20T00:00:46;3.40;;;2.15;;
78122;SDS011;67376;44.802;10.332;2023-04-20T00:03:11;3.28;;;2.10;;
78122;SDS011;67376;44.802;10.332;2023-04-20T00:05:37;3.63;;;2.13;;
78122;SDS011;67376;44.802;10.332;2023-04-20T00:08:03;2.70;;;2.00;;
78122;SDS011;67376;44.802;10.332;2023-04-20T00:10:28;3.58;;;2.13;;
78122;SDS011;67376;44.802;10.332;2023-04-20T00:12:54;3.92;;;2.20;;
78122;SDS011;67376;44.802;10.332;2023-04-20T00:15:19;2.72;;;2.05;;
78122;SDS011;67376;44.802;10.332;2023-04-20T00:17:45;3.95;;;2.00;;
78122;SDS011;67376;44.802;10.332;2023-04-20T00:20:10;3.33;;;2.20;;
78122;SDS011;67376;44.802;10.332;2023-04-20T00:22:36;6.15;;;2.15;;
78122;SDS011;67376;44.802;10.332;2023-04-20T00:25:01;3.45;;;2.30;;
78122;SDS011;67376;44.802;10.332;2023-04-20T00:27:27;2.88;;;1.90;;
78122;SDS011;67376;44.802;10.332;2023-04-20T00:29:52;2.60;;;2.10;;
78122;SDS011;67376;44.802;10.332;2023-04-20T00:32:18;4.25;;;2.08;;
78122;SDS011;67376;44.802;10.332;2023-04-20T00:34:43;3.40;;;2.30;;
78122;SDS011;67376;44.802;10.332;2023-04-20T00:37:08;3.25;;;1.90;;
78122;SDS011;67376;44.802;10.332;2023-04-20T00:39:34;3.03;;;2.28;;
78122;SDS011;67376;44.802;10.332;2023-04-20T00:42:03;3.72;;;2.15;;
78122;SDS011;67376;44.802;10.332;2023-04-20T00:44:30;3.20;;;2.42;;
78122;SDS011;67376;44.802;10.332;2023-04-20T00:46:55;3.88;;;2.13;;
78122;SDS011;67376;44.802;10.332;2023-04-20T00:49:21;2.50;;;1.92;;
78122;SDS011;67376;44.802;10.332;2023-04-20T00:51:49;5.50;;;2.08;;
78122;SDS011;67376;44.802;10.332;2023-04-20T00:54:14;4.43;;;2.50;;
78122;SDS011;67376;44.802;10.332;2023-04-20T00:56:40;2.72;;;2.05;;
78122;SDS011;67376;44.802;10.332;2023-04-20T00:59:06;2.75;;;2.03;;
78122;SDS011;67376;44.802;10.332;2023-04-20T01:01:32;3.20;;;1.90;;
78122;SDS011;67376;44.802;10.332;2023-04-20T01:03:57;3.33;;;2.22;;
78122;SDS011;67376;44.802;10.332;2023-04-20T01:06:22;2.83;;;2.20;;
78122;SDS011;67376;44.802;10.332;2023-04-20T01:08:48;2.85;;;2.17;;
78122;SDS011;67376;44.802;10.332;2023-04-20T01:11:15;3.72;;;2.05;;
78122;SDS011;67376;44.802;10.332;2023-04-20T01:13:41;2.03;;;1.75;;
78122;SDS011;67376;44.802;10.332;2023-04-20T01:16:07;3.30;;;2.00;;
78122;SDS011;67376;44.802;10.332;2023-04-20T01:18:48;3.67;;;2.28;;
78122;SDS011;67376;44.802;10.332;2023-04-20T01:21:15;2.83;;;2.08;;
78122;SDS011;67376;44.802;10.332;2023-04-20T01:23:42;3.10;;;2.13;;
78122;SDS011;67376;44.802;10.332;2023-04-20T01:26:08;2.88;;;2.45;;
78122;SDS011;67376;44.802;10.332;2023-04-20T01:28:34;4.97;;;1.90;;
78122;SDS011;67376;44.802;10.332;2023-04-20T01:31:00;3.95;;;2.40;;
78122;SDS011;67376;44.802;10.332;2023-04-20T01:33:27;3.00;;;2.17;;
78122;SDS011;67376;44.802;10.332;2023-04-20T01:35:52;3.05;;;2.10;;
78122;SDS011;67376;44.802;10.332;2023-04-20T01:38:18;4.50;;;2.05;;
78122;SDS011;67376;44.802;10.332;2023-04-20T01:40:45;2.97;;;1.95;;
78122;SDS011;67376;44.802;10.332;2023-04-20T01:43:11;4.50;;;2.28;;
78122;SDS011;67376;44.802;10.332;2023-04-20T01:45:36;2.78;;;2.17;;
78122;SDS011;67376;44.802;10.332;2023-04-20T01:48:02;2.63;;;1.90;;
78122;SDS011;67376;44.802;10.332;2023-04-20T01:50:27;2.85;;;2.13;;
78122;SDS011;67376;44.802;10.332;2023-04-20T01:52:53;4.82;;;2.10;;
78122;SDS011;67376;44.802;10.332;2023-04-20T01:55:18;2.78;;;2.22;;
78122;SDS011;67376;44.802;10.332;2023-04-20T01:57:44;3.38;;;2.17;;
78122;SDS011;67376;44.802;10.332;2023-04-20T02:00:10;3.78;;;2.17;;
78122;SDS011;67376;44.802;10.332;2023-04-20T02:02:36;2.45;;;2.00;;
78122;SDS011;67376;44.802;10.332;2023-04-20T02:05:01;3.53;;;2.05;;
78122;SDS011;67376;44.802;10.332;2023-04-20T02:07:27;3.08;;;2.20;;
78122;SDS011;67376;44.802;10.332;2023-04-20T02:09:52;3.60;;;2.30;;
78122;SDS011;67376;44.802;10.332;2023-04-20T02:12:18;3.13;;;2.40;;
78122;SDS011;67376;44.802;10.332;2023-04-20T02:14:43;2.97;;;2.00;;
78122;SDS011;67376;44.802;10.332;2023-04-20T02:17:09;2.25;;;1.90;;
78122;SDS011;67376;44.802;10.332;2023-04-20T02:19:34;3.30;;;2.17;;
78122;SDS011;67376;44.802;10.332;2023-04-20T02:22:00;3.25;;;2.15;;
78122;SDS011;67376;44.802;10.332;2023-04-20T02:24:26;3.28;;;1.83;;
78122;SDS011;67376;44.802;10.332;2023-04-20T02:26:51;2.83;;;1.85;;
78122;SDS011;67376;44.802;10.332;2023-04-20T02:29:17;3.08;;;2.25;;
78122;SDS011;67376;44.802;10.332;2023-04-20T02:31:42;2.90;;;2.22;;
78122;SDS011;67376;44.802;10.332;2023-04-20T02:34:07;2.95;;;2.00;;
78122;SDS011;67376;44.802;10.332;2023-04-20T02:36:34;3.47;;;2.22;;
78122;SDS011;67376;44.802;10.332;2023-04-20T02:39:00;2.80;;;2.22;;
78122;SDS011;67376;44.802;10.332;2023-04-20T02:41:25;3.60;;;1.95;;
78122;SDS011;67376;44.802;10.332;2023-04-20T02:43:51;3.15;;;2.20;;
78122;SDS011;67376;44.802;10.332;2023-04-20T02:46:16;2.35;;;1.85;;
78122;SDS011;67376;44.802;10.332;2023-04-20T02:48:42;2.70;;;2.10;;
78122;SDS011;67376;44.802;10.332;2023-04-20T02:51:07;2.00;;;1.70;;
78122;SDS011;67376;44.802;10.332;2023-04-20T02:53:33;2.42;;;2.05;;
78122;SDS011;67376;44.802;10.332;2023-04-20T02:55:59;3.53;;;2.17;;
78122;SDS011;67376;44.802;10.332;2023-04-20T02:58:24;3.30;;;2.22;;
78122;SDS011;67376;44.802;10.332;2023-04-20T03:00:50;2.53;;;1.85;;
78122;SDS011;67376;44.802;10.332;2023-04-20T03:03:16;2.38;;;2.05;;
78122;SDS011;67376;44.802;10.332;2023-04-20T03:05:42;3.10;;;2.20;;
78122;SDS011;67376;44.802;10.332;2023-04-20T03:08:07;3.00;;;1.90;;
78122;SDS011;67376;44.802;10.332;2023-04-20T03:10:33;2.33;;;1.80;;
78122;SDS011;67376;44.802;10.332;2023-04-20T03:12:58;2.83;;;2.13;;
78122;SDS011;67376;44.802;10.332;2023-04-20T03:15:23;2.63;;;2.08;;
78122;SDS011;67376;44.802;10.332;2023-04-20T03:17:49;3.13;;;2.38;;
78122;SDS011;67376;44.802;10.332;2023-04-20T03:20:14;2.90;;;2.00;;
78122;SDS011;67376;44.802;10.332;2023-04-20T03:22:40;3.03;;;1.80;;
78122;SDS011;67376;44.802;10.332;2023-04-20T03:25:06;3.90;;;2.03;;
78122;SDS011;67376;44.802;10.332;2023-04-20T03:27:31;2.30;;;1.80;;
78122;SDS011;67376;44.802;10.332;2023-04-20T03:29:57;2.92;;;1.92;;
78122;SDS011;67376;44.802;10.332;2023-04-20T03:32:22;3.13;;;2.03;;
78122;SDS011;67376;44.802;10.332;2023-04-20T03:34:47;3.80;;;1.90;;
78122;SDS011;67376;44.802;10.332;2023-04-20T03:37:14;2.15;;;1.70;;
78122;SDS011;67376;44.802;10.332;2023-04-20T03:39:39;2.50;;;1.80;;
78122;SDS011;67376;44.802;10.332;2023-04-20T03:42:04;2.45;;;1.98;;
78122;SDS011;67376;44.802;10.332;2023-04-20T03:44:30;2.72;;;1.90;;
78122;SDS011;67376;44.802;10.332;2023-04-20T03:46:55;2.97;;;1.95;;
78122;SDS011;67376;44.802;10.332;2023-04-20T03:49:22;3.13;;;1.67;;
78122;SDS011;67376;44.802;10.332;2023-04-20T03:51:51;2.65;;;2.00;;
78122;SDS011;67376;44.802;10.332;2023-04-20T03:54:16;1.92;;;1.70;;
78122;SDS011;67376;44.802;10.332;2023-04-20T03:56:42;3.00;;;1.80;;
78122;SDS011;67376;44.802;10.332;2023-04-20T03:59:09;2.70;;;2.03;;
78122;SDS011;67376;44.802;10.332;2023-04-20T04:01:35;2.35;;;1.70;;
78122;SDS011;67376;44.802;10.332;2023-04-20T04:04:03;2.45;;;1.98;;
78122;SDS011;67376;44.802;10.332;2023-04-20T04:06:28;2.65;;;1.90;;
78122;SDS011;67376;44.802;10.332;2023-04-20T04:08:54;2.70;;;1.90;;
78122;SDS011;67376;44.802;10.332;2023-04-20T04:11:19;2.45;;;1.70;;
78122;SDS011;67376;44.802;10.332;2023-04-20T04:13:45;3.03;;;1.80;;
78122;SDS011;67376;44.802;10.332;2023-04-20T04:16:10;2.30;;;1.90;;
78122;SDS011;67376;44.802;10.332;2023-04-20T04:18:36;2.95;;;2.10;;
78122;SDS011;67376;44.802;10.332;2023-04-20T04:21:02;1.98;;;1.73;;
78122;SDS011;67376;44.802;10.332;2023-04-20T04:23:27;3.80;;;2.10;;
78122;SDS011;67376;44.802;10.332;2023-04-20T04:25:53;2.55;;;1.90;;
78122;SDS011;67376;44.802;10.332;2023-04-20T04:28:18;2.33;;;1.73;;
78122;SDS011;67376;44.802;10.332;2023-04-20T04:30:44;2.45;;;1.83;;
78122;SDS011;67376;44.802;10.332;2023-04-20T04:33:11;5.40;;;2.60;;
78122;SDS011;67376;44.802;10.332;2023-04-20T04:35:38;2.28;;;1.90;;
78122;SDS011;67376;44.802;10.332;2023-04-20T04:38:05;4.80;;;2.65;;
78122;SDS011;67376;44.802;10.332;2023-04-20T04:40:30;4.25;;;2.20;;
78122;SDS011;67376;44.802;10.332;2023-04-20T04:42:57;5.70;;;2.10;;
78122;SDS011;67376;44.802;10.332;2023-04-20T04:45:24;3.78;;;1.98;;
78122;SDS011;67376;44.802;10.332;2023-04-20T04:47:50;2.20;;;1.60;;
78122;SDS011;67376;44.802;10.332;2023-04-20T04:50:17;1.70;;;1.60;;
78122;SDS011;67376;44.802;10.332;2023-04-20T04:52:43;2.28;;;1.80;;
78122;SDS011;67376;44.802;10.332;2023-04-20T04:55:09;6.20;;;1.98;;
78122;SDS011;67376;44.802;10.332;2023-04-20T04:57:35;4.15;;;1.90;;
78122;SDS011;67376;44.802;10.332;2023-04-20T05:00:02;4.00;;;2.08;;
78122;SDS011;67376;44.802;10.332;2023-04-20T05:02:33;3.03;;;1.90;;
78122;SDS011;67376;44.802;10.332;2023-04-20T05:04:58;4.55;;;2.05;;
78122;SDS011;67376;44.802;10.332;2023-04-20T05:07:24;2.90;;;1.92;;
78122;SDS011;67376;44.802;10.332;2023-04-20T05:09:50;2.17;;;1.50;;
78122;SDS011;67376;44.802;10.332;2023-04-20T05:12:15;3.30;;;1.98;;
78122;SDS011;67376;44.802;10.332;2023-04-20T05:14:41;3.60;;;1.80;;
78122;SDS011;67376;44.802;10.332;2023-04-20T05:17:06;2.15;;;1.50;;
78122;SDS011;67376;44.802;10.332;2023-04-20T05:19:31;3.05;;;1.90;;
78122;SDS011;67376;44.802;10.332;2023-04-20T05:21:57;6.28;;;1.85;;
78122;SDS011;67376;44.802;10.332;2023-04-20T05:24:22;4.85;;;1.77;;
78122;SDS011;67376;44.802;10.332;2023-04-20T05:26:48;5.78;;;2.10;;
78122;SDS011;67376;44.802;10.332;2023-04-20T05:29:14;3.28;;;1.70;;
78122;SDS011;67376;44.802;10.332;2023-04-20T05:31:40;2.67;;;1.80;;
78122;SDS011;67376;44.802;10.332;2023-04-20T05:34:05;4.25;;;1.83;;
78122;SDS011;67376;44.802;10.332;2023-04-20T05:36:30;3.53;;;1.90;;
78122;SDS011;67376;44.802;10.332;2023-04-20T05:38:57;4.97;;;2.60;;
78122;SDS011;67376;44.802;10.332;2023-04-20T05:41:23;2.00;;;1.52;;
78122;SDS011;67376;44.802;10.332;2023-04-20T05:43:51;2.58;;;1.92;;
78122;SDS011;67376;44.802;10.332;2023-04-20T05:46:17;4.25;;;1.90;;
78122;SDS011;67376;44.802;10.332;2023-04-20T05:48:43;4.53;;;1.80;;
78122;SDS011;67376;44.802;10.332;2023-04-20T05:51:08;4.63;;;2.40;;
78122;SDS011;67376;44.802;10.332;2023-04-20T05:53:34;4.72;;;2.10;;
78122;SDS011;67376;44.802;10.332;2023-04-20T05:55:59;4.05;;;2.00;;
78122;SDS011;67376;44.802;10.332;2023-04-20T05:58:25;3.20;;;2.08;;
78122;SDS011;67376;44.802;10.332;2023-04-20T06:00:51;6.40;;;2.97;;
78122;SDS011;67376;44.802;10.332;2023-04-20T06:03:16;5.15;;;3.50;;
78122;SDS011;67376;44.802;10.332;2023-04-20T06:05:42;5.07;;;3.55;;
78122;SDS011;67376;44.802;10.332;2023-04-20T06:08:07;7.20;;;4.47;;
78122;SDS011;67376;44.802;10.332;2023-04-20T06:10:33;5.72;;;3.90;;
78122;SDS011;67376;44.802;10.332;2023-04-20T06:12:58;7.18;;;4.35;;
78122;SDS011;67376;44.802;10.332;2023-04-20T06:15:24;6.25;;;3.92;;
78122;SDS011;67376;44.802;10.332;2023-04-20T06:17:49;8.40;;;4.82;;
78122;SDS011;67376;44.802;10.332;2023-04-20T06:20:15;6.72;;;4.22;;
78122;SDS011;67376;44.802;10.332;2023-04-20T06:22:41;5.38;;;4.13;;
78122;SDS011;67376;44.802;10.332;2023-04-20T06:25:11;5.70;;;3.67;;
78122;SDS011;67376;44.802;10.332;2023-04-20T06:27:37;6.50;;;3.95;;
78122;SDS011;67376;44.802;10.332;2023-04-20T06:30:03;5.90;;;3.28;;
78122;SDS011;67376;44.802;10.332;2023-04-20T06:32:30;4.68;;;3.13;;
78122;SDS011;67376;44.802;10.332;2023-04-20T06:34:55;5.25;;;3.13;;
78122;SDS011;67376;44.802;10.332;2023-04-20T06:37:20;8.77;;;3.10;;
78122;SDS011;67376;44.802;10.332;2023-04-20T06:39:46;3.80;;;2.85;;
78122;SDS011;67376;44.802;10.332;2023-04-20T06:42:11;4.95;;;2.70;;
78122;SDS011;67376;44.802;10.332;2023-04-20T06:44:38;7.22;;;3.00;;
78122;SDS011;67376;44.802;10.332;2023-04-20T06:47:03;4.38;;;3.08;;
78122;SDS011;67376;44.802;10.332;2023-04-20T06:49:29;6.18;;;3.33;;
78122;SDS011;67376;44.802;10.332;2023-04-20T06:51:54;3.78;;;2.70;;
78122;SDS011;67376;44.802;10.332;2023-04-20T06:54:20;4.55;;;2.78;;
78122;SDS011;67376;44.802;10.332;2023-04-20T06:56:45;2.92;;;2.63;;
78122;SDS011;67376;44.802;10.332;2023-04-20T06:59:10;4.35;;;2.83;;
78122;SDS011;67376;44.802;10.332;2023-04-20T07:01:36;3.97;;;2.67;;
78122;SDS011;67376;44.802;10.332;2023-04-20T07:04:01;3.65;;;3.03;;
78122;SDS011;67376;44.802;10.332;2023-04-20T07:06:27;3.88;;;2.55;;
78122;SDS011;67376;44.802;10.332;2023-04-20T07:08:52;4.78;;;2.25;;
78122;SDS011;67376;44.802;10.332;2023-04-20T07:11:18;5.32;;;2.92;;
78122;SDS011;67376;44.802;10.332;2023-04-20T07:13:43;3.90;;;2.50;;
78122;SDS011;67376;44.802;10.332;2023-04-20T07:16:08;5.07;;;3.00;;
78122;SDS011;67376;44.802;10.332;2023-04-20T07:18:34;5.78;;;3.03;;
78122;SDS011;67376;44.802;10.332;2023-04-20T07:21:00;4.15;;;2.67;;
78122;SDS011;67376;44.802;10.332;2023-04-20T07:23:25;3.97;;;2.75;;
78122;SDS011;67376;44.802;10.332;2023-04-20T07:25:51;3.58;;;2.72;;
78122;SDS011;67376;44.802;10.332;2023-04-20T07:28:16;4.43;;;3.03;;
78122;SDS011;67376;44.802;10.332;2023-04-20T07:30:42;3.42;;;2.35;;
78122;SDS011;67376;44.802;10.332;2023-04-20T07:33:07;3.95;;;2.35;;
78122;SDS011;67376;44.802;10.332;2023-04-20T07:35:33;4.82;;;2.58;;
78122;SDS011;67376;44.802;10.332;2023-04-20T07:37:58;8.15;;;3.17;;
78122;SDS011;67376;44.802;10.332;2023-04-20T07:40:24;4.18;;;2.78;;
78122;SDS011;67376;44.802;10.332;2023-04-20T07:42:49;5.35;;;2.88;;
78122;SDS011;67376;44.802;10.332;2023-04-20T07:45:15;4.05;;;2.58;;
78122;SDS011;67376;44.802;10.332;2023-04-20T07:47:40;4.60;;;2.78;;
78122;SDS011;67376;44.802;10.332;2023-04-20T07:50:08;7.13;;;2.60;;
78122;SDS011;67376;44.802;10.332;2023-04-20T07:52:35;4.07;;;2.85;;
78122;SDS011;67376;44.802;10.332;2023-04-20T07:55:00;5.15;;;2.70;;
78122;SDS011;67376;44.802;10.332;2023-04-20T07:57:26;6.15;;;3.25;;
78122;SDS011;67376;44.802;10.332;2023-04-20T07:59:52;4.82;;;2.50;;
78122;SDS011;67376;44.802;10.332;2023-04-20T08:02:18;4.07;;;2.42;;
78122;SDS011;67376;44.802;10.332;2023-04-20T08:04:43;7.13;;;2.50;;
78122;SDS011;67376;44.802;10.332;2023-04-20T08:07:09;4.82;;;2.50;;
78122;SDS011;67376;44.802;10.332;2023-04-20T08:09:35;7.68;;;2.65;;
78122;SDS011;67376;44.802;10.332;2023-04-20T08:12:00;3.22;;;2.53;;
78122;SDS011;67376;44.802;10.332;2023-04-20T08:14:26;4.18;;;2.50;;
78122;SDS011;67376;44.802;10.332;2023-04-20T08:16:51;3.97;;;2.75;;
78122;SDS011;67376;44.802;10.332;2023-04-20T08:19:17;4.10;;;2.50;;
78122;SDS011;67376;44.802;10.332;2023-04-20T08:21:42;3.95;;;2.60;;
78122;SDS011;67376;44.802;10.332;2023-04-20T08:24:08;6.63;;;3.25;;
78122;SDS011;67376;44.802;10.332;2023-04-20T08:26:34;3.75;;;2.38;;
78122;SDS011;67376;44.802;10.332;2023-04-20T08:29:00;4.60;;;2.70;;
78122;SDS011;67376;44.802;10.332;2023-04-20T08:31:27;3.80;;;2.63;;
78122;SDS011;67376;44.802;10.332;2023-04-20T08:33:52;4.18;;;2.58;;
78122;SDS011;67376;44.802;10.332;2023-04-20T08:36:18;6.05;;;2.63;;
78122;SDS011;67376;44.802;10.332;2023-04-20T08:38:43;4.00;;;2.40;;
78122;SDS011;67376;44.802;10.332;2023-04-20T08:41:10;4.32;;;2.42;;
78122;SDS011;67376;44.802;10.332;2023-04-20T08:43:39;5.18;;;3.10;;
78122;SDS011;67376;44.802;10.332;2023-04-20T08:46:05;3.92;;;2.70;;
78122;SDS011;67376;44.802;10.332;2023-04-20T08:48:33;6.78;;;2.90;;
78122;SDS011;67376;44.802;10.332;2023-04-20T08:51:00;3.92;;;2.90;;
78122;SDS011;67376;44.802;10.332;2023-04-20T08:53:28;3.97;;;2.63;;
78122;SDS011;67376;44.802;10.332;2023-04-20T08:55:53;7.28;;;2.90;;
78122;SDS011;67376;44.802;10.332;2023-04-20T08:58:22;5.47;;;2.65;;
78122;SDS011;67376;44.802;10.332;2023-04-20T09:00:49;5.30;;;2.58;;
78122;SDS011;67376;44.802;10.332;2023-04-20T09:03:15;3.22;;;2.45;;
78122;SDS011;67376;44.802;10.332;2023-04-20T09:05:40;5.28;;;3.63;;
78122;SDS011;67376;44.802;10.332;2023-04-20T09:08:08;6.10;;;2.83;;
78122;SDS011;67376;44.802;10.332;2023-04-20T09:10:43;4.47;;;2.90;;
78122;SDS011;67376;44.802;10.332;2023-04-20T09:13:09;4.32;;;2.80;;
78122;SDS011;67376;44.802;10.332;2023-04-20T09:15:45;4.55;;;2.90;;
78122;SDS011;67376;44.802;10.332;2023-04-20T09:18:11;3.97;;;3.15;;
78122;SDS011;67376;44.802;10.332;2023-04-20T09:20:38;5.78;;;2.65;;
78122;SDS011;67376;44.802;10.332;2023-04-20T09:23:14;4.05;;;2.88;;
78122;SDS011;67376;44.802;10.332;2023-04-20T09:25:41;4.97;;;2.70;;
78122;SDS011;67376;44.802;10.332;2023-04-20T09:28:09;4.15;;;2.72;;
78122;SDS011;67376;44.802;10.332;2023-04-20T09:30:38;5.20;;;2.92;;
78122;SDS011;67376;44.802;10.332;2023-04-20T09:33:05;4.07;;;2.70;;
78122;SDS011;67376;44.802;10.332;2023-04-20T09:35:36;4.45;;;2.70;;
78122;SDS011;67376;44.802;10.332;2023-04-20T09:38:04;3.88;;;3.00;;
78122;SDS011;67376;44.802;10.332;2023-04-20T09:40:31;3.35;;;2.65;;
78122;SDS011;67376;44.802;10.332;2023-04-20T09:42:57;5.78;;;3.10;;
78122;SDS011;67376;44.802;10.332;2023-04-20T09:45:27;4.10;;;2.88;;
78122;SDS011;67376;44.802;10.332;2023-04-20T09:47:53;5.32;;;3.00;;
78122;SDS011;67376;44.802;10.332;2023-04-20T09:50:19;4.88;;;2.88;;
78122;SDS011;67376;44.802;10.332;2023-04-20T09:52:45;4.43;;;2.97;;
78122;SDS011;67376;44.802;10.332;2023-04-20T09:55:13;4.55;;;3.13;;
78122;SDS011;67376;44.802;10.332;2023-04-20T09:57:39;5.03;;;3.40;;
78122;SDS011;67376;44.802;10.332;2023-04-20T10:00:05;6.07;;;2.92;;
78122;SDS011;67376;44.802;10.332;2023-04-20T10:02:32;5.00;;;3.17;;
78122;SDS011;67376;44.802;10.332;2023-04-20T10:04:58;4.55;;;2.60;;
78122;SDS011;67376;44.802;10.332;2023-04-20T10:07:27;3.85;;;3.03;;
78122;SDS011;67376;44.802;10.332;2023-04-20T10:10:28;4.28;;;3.15;;
78122;SDS011;67376;44.802;10.332;2023-04-20T10:12:53;4.50;;;3.00;;
78122;SDS011;67376;44.802;10.332;2023-04-20T10:15:20;4.93;;;3.05;;
78122;SDS011;67376;44.802;10.332;2023-04-20T10:17:46;5.43;;;2.83;;
78122;SDS011;67376;44.802;10.332;2023-04-20T10:20:25;5.25;;;3.55;;
78122;SDS011;67376;44.802;10.332;2023-04-20T10:22:52;4.00;;;2.97;;
78122;SDS011;67376;44.802;10.332;2023-04-20T10:25:19;4.82;;;3.10;;
78122;SDS011;67376;44.802;10.332;2023-04-20T10:27:53;4.03;;;3.13;;
78122;SDS011;67376;44.802;10.332;2023-04-20T10:30:28;3.70;;;2.95;;
78122;SDS011;67376;44.802;10.332;2023-04-20T10:33:01;5.63;;;3.55;;
78122;SDS011;67376;44.802;10.332;2023-04-20T10:35:27;5.22;;;3.13;;
78122;SDS011;67376;44.802;10.332;2023-04-20T10:37:54;4.13;;;3.10;;
78122;SDS011;67376;44.802;10.332;2023-04-20T10:40:25;4.82;;;3.00;;
78122;SDS011;67376;44.802;10.332;2023-04-20T10:42:51;4.45;;;3.90;;
78122;SDS011;67376;44.802;10.332;2023-04-20T10:45:17;5.00;;;3.20;;
78122;SDS011;67376;44.802;10.332;2023-04-20T10:47:42;3.80;;;3.13;;
78122;SDS011;67376;44.802;10.332;2023-04-20T10:52:37;3.70;;;2.67;;
78122;SDS011;67376;44.802;10.332;2023-04-20T10:55:04;3.67;;;2.97;;
78122;SDS011;67376;44.802;10.332;2023-04-20T10:57:31;4.68;;;3.03;;
78122;SDS011;67376;44.802;10.332;2023-04-20T10:59:57;7.47;;;3.22;;
78122;SDS011;67376;44.802;10.332;2023-04-20T11:02:23;6.15;;;3.40;;
78122;SDS011;67376;44.802;10.332;2023-04-20T11:04:49;4.85;;;3.10;;
78122;SDS011;67376;44.802;10.332;2023-04-20T11:07:15;3.83;;;2.80;;
78122;SDS011;67376;44.802;10.332;2023-04-20T11:09:41;4.30;;;2.97;;
78122;SDS011;67376;44.802;10.332;2023-04-20T11:12:07;4.90;;;2.78;;
78122;SDS011;67376;44.802;10.332;2023-04-20T11:14:36;3.90;;;2.97;;
78122;SDS011;67376;44.802;10.332;2023-04-20T11:17:04;3.90;;;2.88;;
78122;SDS011;67376;44.802;10.332;2023-04-20T11:19:33;4.78;;;2.70;;
78122;SDS011;67376;44.802;10.332;2023-04-20T11:22:03;5.75;;;3.00;;
78122;SDS011;67376;44.802;10.332;2023-04-20T11:24:30;5.05;;;3.08;;
78122;SDS011;67376;44.802;10.332;2023-04-20T11:27:01;4.20;;;3.00;;
78122;SDS011;67376;44.802;10.332;2023-04-20T11:29:35;5.03;;;3.17;;
78122;SDS011;67376;44.802;10.332;2023-04-20T11:32:03;5.82;;;2.95;;
78122;SDS011;67376;44.802;10.332;2023-04-20T11:34:33;3.60;;;2.83;;
78122;SDS011;67376;44.802;10.332;2023-04-20T11:37:06;4.43;;;3.25;;
78122;SDS011;67376;44.802;10.332;2023-04-20T11:39:33;4.07;;;2.97;;
78122;SDS011;67376;44.802;10.332;2023-04-20T11:41:59;4.80;;;3.20;;
78122;SDS011;67376;44.802;10.332;2023-04-20T11:44:24;4.00;;;2.53;;
78122;SDS011;67376;44.802;10.332;2023-04-20T11:46:51;4.20;;;2.97;;
78122;SDS011;67376;44.802;10.332;2023-04-20T11:49:19;5.18;;;3.13;;
78122;SDS011;67376;44.802;10.332;2023-04-20T11:51:45;3.47;;;2.72;;
78122;SDS011;67376;44.802;10.332;2023-04-20T11:54:12;6.57;;;3.15;;
78122;SDS011;67376;44.802;10.332;2023-04-20T11:56:38;7.38;;;3.15;;
78122;SDS011;67376;44.802;10.332;2023-04-20T11:59:06;4.57;;;2.88;;
78122;SDS011;67376;44.802;10.332;2023-04-20T12:01:33;5.15;;;2.95;;
78122;SDS011;67376;44.802;10.332;2023-04-20T12:03:59;3.85;;;2.90;;
78122;SDS011;67376;44.802;10.332;2023-04-20T12:06:26;4.75;;;3.10;;
78122;SDS011;67376;44.802;10.332;2023-04-20T12:08:53;4.60;;;3.20;;
78122;SDS011;67376;44.802;10.332;2023-04-20T12:11:19;4.93;;;2.97;;
78122;SDS011;67376;44.802;10.332;2023-04-20T12:13:45;4.90;;;2.90;;
78122;SDS011;67376;44.802;10.332;2023-04-20T12:16:10;3.65;;;2.90;;
78122;SDS011;67376;44.802;10.332;2023-04-20T12:18:36;4.80;;;2.80;;
78122;SDS011;67376;44.802;10.332;2023-04-20T12:21:02;4.25;;;2.92;;
78122;SDS011;67376;44.802;10.332;2023-04-20T12:23:28;6.05;;;3.60;;
78122;SDS011;67376;44.802;10.332;2023-04-20T12:25:53;5.60;;;3.10;;
78122;SDS011;67376;44.802;10.332;2023-04-20T12:28:19;4.03;;;2.95;;
78122;SDS011;67376;44.802;10.332;2023-04-20T12:30:44;4.18;;;2.95;;
78122;SDS011;67376;44.802;10.332;2023-04-20T12:33:10;4.97;;;3.30;;
78122;SDS011;67376;44.802;10.332;2023-04-20T12:35:35;3.75;;;2.70;;
78122;SDS011;67376;44.802;10.332;2023-04-20T12:38:01;4.82;;;3.33;;
78122;SDS011;67376;44.802;10.332;2023-04-20T12:40:26;4.32;;;3.13;;
78122;SDS011;67376;44.802;10.332;2023-04-20T12:42:51;4.10;;;3.08;;
78122;SDS011;67376;44.802;10.332;2023-04-20T12:45:17;3.30;;;2.97;;
78122;SDS011;67376;44.802;10.332;2023-04-20T12:47:42;5.53;;;3.33;;
78122;SDS011;67376;44.802;10.332;2023-04-20T12:50:08;4.68;;;3.00;;
78122;SDS011;67376;44.802;10.332;2023-04-20T12:52:34;4.68;;;2.47;;
78122;SDS011;67376;44.802;10.332;2023-04-20T12:54:59;3.45;;;2.72;;
78122;SDS011;67376;44.802;10.332;2023-04-20T12:57:25;5.57;;;2.83;;
78122;SDS011;67376;44.802;10.332;2023-04-20T12:59:51;4.28;;;2.95;;
78122;SDS011;67376;44.802;10.332;2023-04-20T13:02:16;4.20;;;3.25;;
78122;SDS011;67376;44.802;10.332;2023-04-20T13:04:42;4.15;;;2.90;;
78122;SDS011;67376;44.802;10.332;2023-04-20T13:07:08;4.18;;;3.17;;
78122;SDS011;67376;44.802;10.332;2023-04-20T13:09:33;3.45;;;2.90;;
78122;SDS011;67376;44.802;10.332;2023-04-20T13:11:59;3.47;;;2.78;;
78122;SDS011;67376;44.802;10.332;2023-04-20T13:14:24;4.38;;;2.80;;
78122;SDS011;67376;44.802;10.332;2023-04-20T13:16:50;3.78;;;2.53;;
78122;SDS011;67376;44.802;10.332;2023-04-20T13:19:15;5.55;;;2.92;;
78122;SDS011;67376;44.802;10.332;2023-04-20T13:21:41;4.15;;;2.72;;
78122;SDS011;67376;44.802;10.332;2023-04-20T13:24:06;4.68;;;3.17;;
78122;SDS011;67376;44.802;10.332;2023-04-20T13:26:32;4.85;;;3.25;;
78122;SDS011;67376;44.802;10.332;2023-04-20T13:28:57;5.80;;;2.85;;
78122;SDS011;67376;44.802;10.332;2023-04-20T13:31:23;3.80;;;3.20;;
78122;SDS011;67376;44.802;10.332;2023-04-20T13:33:49;3.97;;;3.03;;
78122;SDS011;67376;44.802;10.332;2023-04-20T13:36:24;4.38;;;3.05;;
78122;SDS011;67376;44.802;10.332;2023-04-20T13:38:50;3.40;;;2.65;;
78122;SDS011;67376;44.802;10.332;2023-04-20T13:41:17;6.80;;;3.20;;
78122;SDS011;67376;44.802;10.332;2023-04-20T13:43:43;5.22;;;3.25;;
78122;SDS011;67376;44.802;10.332;2023-04-20T13:46:09;3.80;;;2.97;;
78122;SDS011;67376;44.802;10.332;2023-04-20T13:48:35;3.72;;;2.75;;
78122;SDS011;67376;44.802;10.332;2023-04-20T13:51:01;3.90;;;2.83;;
78122;SDS011;67376;44.802;10.332;2023-04-20T13:53:26;4.03;;;2.80;;
78122;SDS011;67376;44.802;10.332;2023-04-20T13:55:51;4.63;;;2.92;;
78122;SDS011;67376;44.802;10.332;2023-04-20T13:58:17;3.60;;;3.10;;
78122;SDS011;67376;44.802;10.332;2023-04-20T14:00:42;3.70;;;2.70;;
78122;SDS011;67376;44.802;10.332;2023-04-20T14:03:08;4.28;;;3.25;;
78122;SDS011;67376;44.802;10.332;2023-04-20T14:05:34;7.28;;;2.70;;
78122;SDS011;67376;44.802;10.332;2023-04-20T14:08:00;4.30;;;2.80;;
78122;SDS011;67376;44.802;10.332;2023-04-20T14:10:27;5.07;;;3.22;;
78122;SDS011;67376;44.802;10.332;2023-04-20T14:12:53;4.50;;;3.38;;
78122;SDS011;67376;44.802;10.332;2023-04-20T14:15:18;4.03;;;2.80;;
78122;SDS011;67376;44.802;10.332;2023-04-20T14:17:43;3.75;;;2.92;;
78122;SDS011;67376;44.802;10.332;2023-04-20T14:20:10;4.15;;;2.78;;
78122;SDS011;67376;44.802;10.332;2023-04-20T14:22:35;2.97;;;2.60;;
78122;SDS011;67376;44.802;10.332;2023-04-20T14:25:04;4.10;;;2.95;;
78122;SDS011;67376;44.802;10.332;2023-04-20T14:27:30;4.65;;;3.45;;
78122;SDS011;67376;44.802;10.332;2023-04-20T14:29:56;3.83;;;2.83;;